Edealina, Brazil
Current Conditions -  °F | °C
As of 8:00 AM on Thursday 23 Oct 2014 (Local Time) from SBGO Reporting Station
Broken Clouds Broken Clouds  
Wind Chill: 72°   Ceiling: 10000
Heat Index: 72°   Visibility: 6mi
Dew Point: 63°   Wind: 3mph
Humidity: 73%   Direction: 130°SE
Pressure: 30.12"   Gusts: NA
Location:  17.42°S, 49.66°W
Report Text: SBGO 231000Z 13003KT 9999 FEW045 BKN100 22/17 Q1020
Loading
Personal Weather Stations






























Interactive Weather Map
Tropical Storm Tracking
New forecast layout! Learn more

10-Day Weather Forecast

Advertisements
Track Severe Weather on mobile